1885 Tropical Storm NOT_NAMED (1885281N15297)


IBTrACS version v04r00. Visit IBTrACS website for data access.
Please direct all questions to the IBTrACS Q and A forum

Storm track - Intensity - Wind Radii - Intensity Data - Source Data - All data

Summary Information

Storm ID 1885281N15297
Start Oct 7 12Z
Max Intensity 50 kt (Oct 15 00Z), 998 mb (Oct 15 12Z)
End Oct 18 12Z
ATCF IDs
Track status Best track data.

Storm track plot

Map of storm track

Intensity plots

Map of storm track

Radial wind information

No radial wind information for this storm


Position and Intensity Table

BASIN ISO_TIME_________ NATURE LAT LON MLC WIND MLC PRES
degrees north degrees east kts mb
NA 1885-10-07 12:00:00 TS 14.50 -63.50 30
NA 15:00:00 TS 14.75 -63.55 30
NA 18:00:00 TS 15.00 -63.60 30
NA 21:00:00 TS 15.25 -63.65 30
NA 1885-10-08 00:00:00 TS 15.50 -63.70 30
NA 03:00:00 TS 15.75 -63.75 30
NA 06:00:00 TS 16.00 -63.80 30
NA 09:00:00 TS 16.22 -63.81 30
NA 12:00:00 TS 16.50 -63.90 30
NA 15:00:00 TS 16.92 -64.17 30
NA 18:00:00 TS 17.40 -64.50 30
NA 21:00:00 TS 17.85 -64.76 30
NA 1885-10-09 00:00:00 TS 18.30 -65.00 30
NA 03:00:00 TS 18.76 -65.25 30
NA 06:00:00 TS 19.20 -65.50 30
NA 09:00:00 TS 19.64 -65.77 30
NA 12:00:00 TS 20.00 -66.00 30
NA 15:00:00 TS 20.23 -66.13 30
NA 18:00:00 TS 20.40 -66.20 30
NA 21:00:00 TS 20.60 -66.26 30
NA 1885-10-10 00:00:00 TS 20.80 -66.30 30
NA 03:00:00 TS 21.01 -66.35 30
NA 06:00:00 TS 21.20 -66.40 30
NA 09:00:00 TS 21.34 -66.45 30
NA 12:00:00 TS 21.50 -66.50 30
NA 15:00:00 TS 21.73 -66.54 30
NA 18:00:00 TS 22.00 -66.60 30
NA 21:00:00 TS 22.26 -66.70 30
NA 1885-10-11 00:00:00 TS 22.50 -66.80 30
NA 03:00:00 TS 22.69 -66.86 30
NA 06:00:00 TS 22.90 -66.90 30
NA 09:00:00 TS 23.19 -66.94 30
NA 12:00:00 TS 23.50 -67.00 30
NA 15:00:00 TS 23.76 -67.14 30
NA 18:00:00 TS 24.00 -67.30 30
NA 21:00:00 TS 24.25 -67.40 32
NA 1885-10-12 00:00:00 TS 24.50 -67.50 35
NA 03:00:00 TS 24.75 -67.65 35
NA 06:00:00 TS 25.00 -67.80 35
NA 09:00:00 TS 25.29 -68.00 37
NA 12:00:00 TS 25.50 -68.00 40
NA 15:00:00 TS 25.50 -67.59 40
NA 18:00:00 TS 25.40 -67.00 40
NA 21:00:00 TS 25.35 -66.54 40
NA 1885-10-13 00:00:00 TS 25.30 -66.00 40
NA 03:00:00 TS 25.26 -65.29 40
NA 06:00:00 TS 25.20 -64.50 40
NA 09:00:00 TS 25.11 -63.67 40
NA 12:00:00 TS 25.00 -63.00 40
NA 15:00:00 TS 24.89 -62.71 40
NA 18:00:00 TS 24.80 -62.60 40
NA 21:00:00 TS 24.74 -62.45 40
NA 1885-10-14 00:00:00 TS 24.70 -62.30 40
NA 03:00:00 TS 24.65 -62.11 40
NA 06:00:00 TS 24.60 -61.90 40
NA 09:00:00 TS 24.57 -61.63 42
NA 12:00:00 TS 24.50 -61.50 45 1005
NA 15:00:00 TS 24.36 -61.68 45
NA 18:00:00 TS 24.20 -62.00 45
NA 21:00:00 TS 24.11 -62.23 47
NA 1885-10-15 00:00:00 TS 24.00 -62.50 50
NA 03:00:00 TS 23.82 -62.89 50
NA 06:00:00 TS 23.60 -63.30 50
NA 09:00:00 TS 23.36 -63.70 50
NA 12:00:00 TS 23.20 -64.00 50 998
NA 15:00:00 TS 23.26 -64.14 50
NA 18:00:00 TS 23.40 -64.20 50
NA 21:00:00 TS 23.46 -64.30 47
NA 1885-10-16 00:00:00 TS 23.50 -64.40 45
NA 03:00:00 TS 23.55 -64.51 45
NA 06:00:00 TS 23.60 -64.60 45
NA 09:00:00 TS 23.60 -64.78 45
NA 12:00:00 TS 23.70 -64.70 45 1003
NA 15:00:00 TS 24.04 -64.07 45
NA 18:00:00 TS 24.50 -63.20 45
NA 21:00:00 TS 24.95 -62.51 45
NA 1885-10-17 00:00:00 TS 25.40 -61.70 45
NA 03:00:00 TS 25.81 -60.62 45
NA 06:00:00 TS 26.20 -59.40 45
NA 09:00:00 TS 26.61 -58.07 42
NA 12:00:00 TS 27.00 -57.00 40
NA 15:00:00 TS 27.35 -56.53 37
NA 18:00:00 TS 27.70 -56.50 35
NA 21:00:00 TS 28.09 -56.73 32
NA 1885-10-18 00:00:00 TS 28.50 -57.00 30
NA 03:00:00 TS 28.91 -56.90 27
NA 06:00:00 TS 29.30 -56.70 25
NA 09:00:00 TS 29.66 -56.57 25
NA 12:00:00 TS 30.00 -56.50 25

Source Information

Agency Information
USA
TOKYO
CMA
HKO
NEWDELHI
REUNION
BOM
NADI
WELLINGTON
DS824
TD9636
TD9635
NEUMANN
MLC

All available IBTrACS Data

SEASON BASIN SUBBASIN ISO_TIME_________ NATURE LAT LON DIST2LAND LANDFALL IFLAG USA SSHS MLC LAT MLC LON MLC CLASS MLC WIND MLC PRES STORM SPEED STORM DIR
Year degrees north degrees east km km 1 degrees north degrees east kts mb kts degrees
1885 NA CS 1885-10-07 12:00:00 TS 14.50 -63.50 427 427 _____________O -1 14.50 -63.50 TD 30 5 351
1885 NA CS 15:00:00 TS 14.75 -63.55 434 409 _____________P -1 14.75 -63.55 TD 30 5 349
1885 NA CS 18:00:00 TS 15.00 -63.60 409 391 _____________O -1 15.00 -63.60 TD 30 5 349
1885 NA CS 21:00:00 TS 15.25 -63.65 375 358 _____________P -1 15.25 -63.65 TD 30 5 349
1885 NA CS 1885-10-08 00:00:00 TS 15.50 -63.70 358 340 _____________O -1 15.50 -63.70 TD 30 5 349
1885 NA CS 03:00:00 TS 15.75 -63.75 325 308 _____________P -1 15.75 -63.75 TD 30 5 349
1885 NA CS 06:00:00 TS 16.00 -63.80 308 292 _____________O -1 16.00 -63.80 TD 30 5 353
1885 NA CS 09:00:00 TS 16.22 -63.81 292 262 _____________P -1 16.22 -63.81 TD 30 5 349
1885 NA CS 12:00:00 TS 16.50 -63.90 262 207 _____________O -1 16.50 -63.90 TD 30 8 334
1885 NA CS 15:00:00 TS 16.92 -64.17 207 146 _____________P -1 16.92 -64.17 TD 30 11 328
1885 NA CS 18:00:00 TS 17.40 -64.50 146 105 _____________O -1 17.40 -64.50 TD 30 11 329
1885 NA CS 21:00:00 TS 17.85 -64.76 95 63 _____________P -1 17.85 -64.76 TD 30 10 332
1885 NA CS 1885-10-09 00:00:00 TS 18.30 -65.00 63 47 _____________O -1 18.30 -65.00 TD 30 10 333
1885 NA CS 03:00:00 TS 18.76 -65.25 54 54 _____________P -1 18.76 -65.25 TD 30 10 332
1885 NA NA 06:00:00 TS 19.20 -65.50 90 90 _____________O -1 19.20 -65.50 TD 30 10 331
1885 NA NA 09:00:00 TS 19.64 -65.77 134 134 _____________P -1 19.64 -65.77 TD 30 9 329
1885 NA NA 12:00:00 TS 20.00 -66.00 178 178 _____________O -1 20.00 -66.00 TD 30 7 330
1885 NA NA 15:00:00 TS 20.23 -66.13 201 201 _____________P -1 20.23 -66.13 TD 30 4 335
1885 NA NA 18:00:00 TS 20.40 -66.20 223 223 _____________O -1 20.40 -66.20 TD 30 4 343
1885 NA NA 21:00:00 TS 20.60 -66.26 246 246 _____________P -1 20.60 -66.26 TD 30 4 347
1885 NA NA 1885-10-10 00:00:00 TS 20.80 -66.30 268 268 _____________O -1 20.80 -66.30 TD 30 4 348
1885 NA NA 03:00:00 TS 21.01 -66.35 290 290 _____________P -1 21.01 -66.35 TD 30 4 347
1885 NA NA 06:00:00 TS 21.20 -66.40 313 313 _____________O -1 21.20 -66.40 TD 30 3 343
1885 NA NA 09:00:00 TS 21.34 -66.45 324 324 _____________P -1 21.34 -66.45 TD 30 3 343
1885 NA NA 12:00:00 TS 21.50 -66.50 346 346 _____________O -1 21.50 -66.50 TD 30 4 348
1885 NA NA 15:00:00 TS 21.73 -66.54 369 369 _____________P -1 21.73 -66.54 TD 30 5 349
1885 NA NA 18:00:00 TS 22.00 -66.60 402 402 _____________O -1 22.00 -66.60 TD 30 5 344
1885 NA NA 21:00:00 TS 22.26 -66.70 430 430 _____________P -1 22.26 -66.70 TD 30 5 340
1885 NA NA 1885-10-11 00:00:00 TS 22.50 -66.80 442 442 _____________O -1 22.50 -66.80 TD 30 5 341
1885 NA NA 03:00:00 TS 22.69 -66.86 454 454 _____________P -1 22.69 -66.86 TD 30 4 348
1885 NA NA 06:00:00 TS 22.90 -66.90 473 473 _____________O -1 22.90 -66.90 TD 30 5 352
1885 NA NA 09:00:00 TS 23.19 -66.94 501 501 _____________P -1 23.19 -66.94 TD 30 6 352
1885 NA NA 12:00:00 TS 23.50 -67.00 526 526 _____________O -1 23.50 -67.00 TD 30 6 341
1885 NA NA 15:00:00 TS 23.76 -67.14 552 547 _____________P -1 23.76 -67.14 TD 30 6 331
1885 NA NA 18:00:00 TS 24.00 -67.30 564 564 _____________O -1 24.00 -67.30 TD 30 5 335
1885 NA NA 21:00:00 TS 24.25 -67.40 579 579 _____________P -1 24.25 -67.40 TD 32 5 340
1885 NA NA 1885-10-12 00:00:00 TS 24.50 -67.50 605 605 _____________O -1 24.50 -67.50 TS 35 6 335
1885 NA NA 03:00:00 TS 24.75 -67.65 631 627 _____________P -1 24.75 -67.65 TS 35 6 331
1885 NA NA 06:00:00 TS 25.00 -67.80 644 644 _____________O -1 25.00 -67.80 TS 35 6 330
1885 NA NA 09:00:00 TS 25.29 -68.00 669 669 _____________P -1 25.29 -68.00 TS 37 5 340
1885 NA NA 12:00:00 TS 25.50 -68.00 690 690 _____________O -1 25.50 -68.00 TS 40 4 61
1885 NA NA 15:00:00 TS 25.50 -67.59 704 704 _____________P -1 25.50 -67.59 TS 40 9 96
1885 NA NA 18:00:00 TS 25.40 -67.00 717 717 _____________O -1 25.40 -67.00 TS 40 10 99
1885 NA NA 21:00:00 TS 25.35 -66.54 729 729 _____________P -1 25.35 -66.54 TS 40 9 96
1885 NA NA 1885-10-13 00:00:00 TS 25.30 -66.00 751 751 _____________O -1 25.30 -66.00 TS 40 11 95
1885 NA NA 03:00:00 TS 25.26 -65.29 772 761 _____________P -1 25.26 -65.29 TS 40 14 94
1885 NA NA 06:00:00 TS 25.20 -64.50 768 767 _____________O -1 25.20 -64.50 TS 40 15 96
1885 NA NA 09:00:00 TS 25.11 -63.67 774 774 _____________P -1 25.11 -63.67 TS 40 14 98
1885 NA NA 12:00:00 TS 25.00 -63.00 785 782 _____________O -1 25.00 -63.00 TS 40 9 104
1885 NA NA 15:00:00 TS 24.89 -62.71 786 779 _____________P -1 24.89 -62.71 TS 40 4 119
1885 NA NA 18:00:00 TS 24.80 -62.60 779 773 _____________O -1 24.80 -62.60 TS 40 3 122
1885 NA NA 21:00:00 TS 24.74 -62.45 773 773 _____________P -1 24.74 -62.45 TS 40 3 110
1885 NA NA 1885-10-14 00:00:00 TS 24.70 -62.30 782 782 _____________O -1 24.70 -62.30 TS 40 3 107
1885 NA NA 03:00:00 TS 24.65 -62.11 791 781 _____________P -1 24.65 -62.11 TS 40 4 105
1885 NA NA 06:00:00 TS 24.60 -61.90 791 791 _____________O -1 24.60 -61.90 TS 40 4 101
1885 NA NA 09:00:00 TS 24.57 -61.63 807 797 _____________P -1 24.57 -61.63 TS 42 4 105
1885 NA NA 12:00:00 TS 24.50 -61.50 803 782 _____________O -1 24.50 -61.50 TS 45 1005 2 188
1885 NA NA 15:00:00 TS 24.36 -61.68 782 747 _____________P -1 24.36 -61.68 TS 45 5 237
1885 NA NA 18:00:00 TS 24.20 -62.00 747 728 _____________O -1 24.20 -62.00 TS 45 6 243
1885 NA NA 21:00:00 TS 24.11 -62.23 728 703 _____________P -1 24.11 -62.23 TS 47 5 246
1885 NA NA 1885-10-15 00:00:00 TS 24.00 -62.50 703 665 _____________O -1 24.00 -62.50 TS 50 7 244
1885 NA NA 03:00:00 TS 23.82 -62.89 665 628 _____________P -1 23.82 -62.89 TS 50 8 241
1885 NA NA 06:00:00 TS 23.60 -63.30 628 592 _____________O -1 23.60 -63.30 TS 50 9 238
1885 NA NA 09:00:00 TS 23.36 -63.70 592 561 _____________P -1 23.36 -63.70 TS 50 8 238
1885 NA NA 12:00:00 TS 23.20 -64.00 561 558 _____________O -1 23.20 -64.00 TS 50 998 4 257
1885 NA NA 15:00:00 TS 23.26 -64.14 569 566 _____________P -1 23.26 -64.14 TS 50 3 317
1885 NA NA 18:00:00 TS 23.40 -64.20 577 575 _____________O -1 23.40 -64.20 TS 50 2 323
1885 NA NA 21:00:00 TS 23.46 -64.30 586 583 _____________P -1 23.46 -64.30 TS 47 2 299
1885 NA NA 1885-10-16 00:00:00 TS 23.50 -64.40 583 581 _____________O -1 23.50 -64.40 TS 45 2 296
1885 NA NA 03:00:00 TS 23.55 -64.51 592 590 _____________P -1 23.55 -64.51 TS 45 2 299
1885 NA NA 06:00:00 TS 23.60 -64.60 590 587 _____________O -1 23.60 -64.60 TS 45 3 281
1885 NA NA 09:00:00 TS 23.60 -64.78 587 587 _____________P -1 23.60 -64.78 TS 45 1 320
1885 NA NA 12:00:00 TS 23.70 -64.70 599 599 _____________O -1 23.70 -64.70 TS 45 1003 8 56
1885 NA NA 15:00:00 TS 24.04 -64.07 645 645 _____________P -1 24.04 -64.07 TS 45 16 60
1885 NA NA 18:00:00 TS 24.50 -63.20 725 725 _____________O -1 24.50 -63.20 TS 45 17 57
1885 NA NA 21:00:00 TS 24.95 -62.51 794 794 _____________P -1 24.95 -62.51 TS 45 16 57
1885 NA NA 1885-10-17 00:00:00 TS 25.40 -61.70 879 879 _____________O -1 25.40 -61.70 TS 45 19 63
1885 NA NA 03:00:00 TS 25.81 -60.62 974 974 _____________P -1 25.81 -60.62 TS 45 22 69
1885 NA NA 06:00:00 TS 26.20 -59.40 1079 1079 _____________O -1 26.20 -59.40 TS 45 24 71
1885 NA NA 09:00:00 TS 26.61 -58.07 1196 1196 _____________P -1 26.61 -58.07 TS 42 23 70
1885 NA NA 12:00:00 TS 27.00 -57.00 1303 1303 _____________O -1 27.00 -57.00 TS 40 16 62
1885 NA NA 15:00:00 TS 27.35 -56.53 1362 1362 _____________P -1 27.35 -56.53 TS 37 8 32
1885 NA NA 18:00:00 TS 27.70 -56.50 1394 1394 _____________O -1 27.70 -56.50 TS 35 8 347
1885 NA NA 21:00:00 TS 28.09 -56.73 1413 1407 _____________P -1 28.09 -56.73 TS 32 9 331
1885 NA NA 1885-10-18 00:00:00 TS 28.50 -57.00 1428 1428 _____________O -1 28.50 -57.00 TD 30 8 350
1885 NA NA 03:00:00 TS 28.91 -56.90 1468 1468 _____________P -1 28.91 -56.90 TD 27 8 18
1885 NA NA 06:00:00 TS 29.30 -56.70 1515 1515 _____________O -1 29.30 -56.70 TD 25 8 21
1885 NA NA 09:00:00 TS 29.66 -56.57 1556 1556 _____________P -1 29.66 -56.57 TD 25 7 14
1885 NA NA 12:00:00 TS 30.00 -56.50 1589 _____________O -1 30.00 -56.50 TD 25 7 10